Time;durP1;ratioP1;P1;durP2;ratioP2;P2;SDS_P1;SDS_P2;PMS_P1;PMS_P2;Temp;Humidity;BMP_temperature;BMP_pressure;BME280_temperature;BME280_humidity;BME280_pressure;Samples;Min_cycle;Max_cycle;Signal;HPM_P1;HPM_P2
2022/01/07 00:00:02;;;;;;;13.93;4.30;;;4.80;90.60;;;;;;5019743;28;37487;-59
2022/01/07 00:02:30;;;;;;;12.73;4.43;;;4.80;90.40;;;;;;5019505;28;37545;-58
2022/01/07 00:04:58;;;;;;;16.35;3.97;;;4.80;90.30;;;;;;5019835;28;37899;-59
2022/01/07 00:07:25;;;;;;;17.10;4.68;;;4.80;90.40;;;;;;5017703;28;36316;-59
2022/01/07 00:09:52;;;;;;;18.98;4.68;;;4.90;90.50;;;;;;5018423;28;37522;-59
2022/01/07 00:12:22;;;;;;;11.50;4.05;;;4.80;90.70;;;;;;5018235;28;39521;-59
2022/01/07 00:14:50;;;;;;;12.02;4.40;;;4.80;90.90;;;;;;5019465;28;36692;-59
2022/01/07 00:17:17;;;;;;;14.98;3.95;;;4.70;91.10;;;;;;5018603;28;38557;-59
2022/01/07 00:19:46;;;;;;;11.68;4.15;;;4.70;91.30;;;;;;5018438;28;39191;-58
2022/01/07 00:22:14;;;;;;;10.63;4.30;;;4.70;91.40;;;;;;5019210;28;37407;-58
2022/01/07 00:24:41;;;;;;;16.42;4.72;;;4.60;92.00;;;;;;5018003;28;36249;-60
2022/01/07 00:27:09;;;;;;;11.43;4.32;;;4.60;92.30;;;;;;5018459;28;38997;-58
2022/01/07 00:29:36;;;;;;;14.10;4.93;;;4.60;92.30;;;;;;5018386;28;38628;-59
2022/01/07 00:32:04;;;;;;;14.07;4.30;;;4.50;92.70;;;;;;5018563;28;38305;-58
2022/01/07 00:34:31;;;;;;;13.98;4.60;;;4.50;92.90;;;;;;5019431;28;40274;-58
2022/01/07 00:37:00;;;;;;;13.32;5.03;;;4.50;93.00;;;;;;5018649;28;38165;-59
2022/01/07 00:39:27;;;;;;;13.55;4.50;;;4.40;93.70;;;;;;5018656;28;39224;-59
2022/01/07 00:41:55;;;;;;;12.98;4.25;;;4.40;93.70;;;;;;5016429;28;36196;-58
2022/01/07 00:44:22;;;;;;;15.93;4.60;;;4.30;94.00;;;;;;5016835;28;36930;-59
2022/01/07 00:46:49;;;;;;;14.27;5.00;;;4.30;94.40;;;;;;5017825;28;37829;-59
2022/01/07 00:49:21;;;;;;;24.13;4.95;;;4.30;94.80;;;;;;5017896;28;37612;-59
2022/01/07 00:51:49;;;;;;;14.48;4.80;;;4.20;94.70;;;;;;5016391;28;38436;-59
2022/01/07 00:54:18;;;;;;;12.52;5.35;;;4.20;95.00;;;;;;5018709;28;38515;-59
2022/01/07 00:56:46;;;;;;;15.60;4.90;;;4.20;95.00;;;;;;5018614;28;36344;-58
2022/01/07 00:59:13;;;;;;;15.18;5.78;;;4.10;95.40;;;;;;5018314;28;37606;-59
2022/01/07 01:01:40;;;;;;;19.02;5.47;;;4.10;95.70;;;;;;5016554;28;38346;-59
2022/01/07 01:04:08;;;;;;;14.23;4.63;;;4.00;95.60;;;;;;5018559;28;35332;-59
2022/01/07 01:06:38;;;;;;;13.02;5.10;;;4.00;96.00;;;;;;5017673;28;37961;-58
2022/01/07 01:09:06;;;;;;;12.85;4.80;;;4.10;96.10;;;;;;5018426;28;37750;-59
2022/01/07 01:11:35;;;;;;;16.10;4.97;;;4.00;96.20;;;;;;5017966;28;37153;-59
2022/01/07 01:14:02;;;;;;;21.92;5.60;;;4.00;96.40;;;;;;5017676;28;37936;-59
2022/01/07 01:16:29;;;;;;;13.38;5.03;;;4.00;96.60;;;;;;5018659;28;37486;-58
2022/01/07 01:18:57;;;;;;;16.58;4.95;;;4.00;96.40;;;;;;5018299;28;39889;-59
2022/01/07 01:21:24;;;;;;;11.02;4.90;;;3.90;96.60;;;;;;5017193;28;36279;-59
2022/01/07 01:23:51;;;;;;;18.85;5.75;;;3.90;96.40;;;;;;5017602;28;37109;-59
2022/01/07 01:26:19;;;;;;;14.73;4.78;;;3.90;96.60;;;;;;5019016;28;38203;-59
2022/01/07 01:28:48;;;;;;;11.70;5.35;;;3.90;96.60;;;;;;5018051;28;37784;-59
2022/01/07 01:31:17;;;;;;;15.48;5.07;;;3.90;96.50;;;;;;5016973;28;36295;-59
2022/01/07 01:33:46;;;;;;;15.40;5.18;;;3.90;96.30;;;;;;5018318;28;36584;-59
2022/01/07 01:36:14;;;;;;;15.68;4.70;;;3.90;96.70;;;;;;5017931;28;38063;-59
2022/01/07 01:38:42;;;;;;;15.15;5.60;;;4.00;96.50;;;;;;5016723;28;38239;-59
2022/01/07 01:41:10;;;;;;;17.20;5.15;;;3.90;96.90;;;;;;5018712;28;36199;-58
2022/01/07 01:43:38;;;;;;;13.68;4.70;;;3.90;97.30;;;;;;5017508;28;35349;-59
2022/01/07 01:46:07;;;;;;;15.77;6.20;;;3.80;97.10;;;;;;5016001;28;38036;-59
2022/01/07 01:48:34;;;;;;;16.67;5.50;;;3.80;97.40;;;;;;5016814;28;37928;-59
2022/01/07 01:51:01;;;;;;;13.13;5.03;;;3.80;97.50;;;;;;5017291;28;38407;-59
2022/01/07 01:53:30;;;;;;;16.35;5.80;;;3.80;97.40;;;;;;5017512;28;37135;-59
2022/01/07 01:55:57;;;;;;;11.32;5.03;;;3.80;97.70;;;;;;5017898;28;38953;-59
2022/01/07 01:58:25;;;;;;;12.68;4.97;;;3.70;97.60;;;;;;5017393;28;37888;-59
2022/01/07 02:00:52;;;;;;;18.00;5.78;;;3.70;97.90;;;;;;5015888;28;38447;-59
2022/01/07 02:03:21;;;;;;;16.60;6.38;;;3.70;97.90;;;;;;5016647;28;38568;-59
2022/01/07 02:05:49;;;;;;;14.60;6.13;;;3.70;98.10;;;;;;5016528;28;36280;-59
2022/01/07 02:08:16;;;;;;;17.27;5.50;;;3.70;98.40;;;;;;5017217;28;38205;-59
2022/01/07 02:10:44;;;;;;;15.80;6.00;;;3.70;98.40;;;;;;5017184;28;37250;-59
2022/01/07 02:13:11;;;;;;;15.90;6.15;;;3.70;98.50;;;;;;5017101;28;36342;-58
2022/01/07 02:15:41;;;;;;;13.40;5.70;;;3.70;98.60;;;;;;5015810;28;37249;-59
2022/01/07 02:18:09;;;;;;;14.18;5.80;;;3.70;98.70;;;;;;5016959;28;38574;-59
2022/01/07 02:20:37;;;;;;;16.00;6.07;;;3.70;98.60;;;;;;5017532;28;37938;-59
2022/01/07 02:23:05;;;;;;;13.48;5.10;;;3.70;98.60;;;;;;5016328;28;34684;-58
2022/01/07 02:25:32;;;;;;;14.98;6.30;;;3.70;98.70;;;;;;5016172;28;37651;-59
2022/01/07 02:28:00;;;;;;;11.13;5.80;;;3.70;98.70;;;;;;5018462;28;38602;-59
2022/01/07 02:30:30;;;;;;;17.88;5.70;;;3.60;98.50;;;;;;5017432;28;36155;-59
2022/01/07 02:32:58;;;;;;;13.35;5.78;;;3.60;98.60;;;;;;5016395;28;36657;-59
2022/01/07 02:35:27;;;;;;;14.82;5.93;;;3.70;98.70;;;;;;5017535;28;37475;-59
2022/01/07 02:37:57;;;;;;;15.50;5.97;;;3.70;98.50;;;;;;5016731;28;37572;-58
2022/01/07 02:40:24;;;;;;;12.23;6.10;;;3.70;98.50;;;;;;5017516;28;36153;-59
2022/01/07 02:42:52;;;;;;;11.32;5.95;;;3.70;98.60;;;;;;5018751;28;36166;-59
2022/01/07 02:45:20;;;;;;;13.32;6.10;;;3.70;98.60;;;;;;5017291;28;37435;-58
2022/01/07 02:47:54;;;;;;;11.57;5.82;;;3.70;98.70;;;;;;5017343;28;37622;-59
2022/01/07 02:50:24;;;;;;;12.68;6.68;;;3.70;98.70;;;;;;5016295;28;37859;-58
2022/01/07 02:52:51;;;;;;;13.18;6.18;;;3.70;99.00;;;;;;5014280;28;37099;-59
2022/01/07 02:55:22;;;;;;;10.95;6.25;;;3.60;98.70;;;;;;5016713;28;39534;-60
2022/01/07 02:57:50;;;;;;;15.00;6.85;;;3.70;98.80;;;;;;5016038;28;36518;-58
2022/01/07 03:00:18;;;;;;;15.50;8.23;;;3.60;98.80;;;;;;5016101;28;37033;-59
2022/01/07 03:02:46;;;;;;;12.98;6.55;;;3.60;99.00;;;;;;5016063;28;36679;-59
2022/01/07 03:05:13;;;;;;;16.00;5.75;;;3.60;99.00;;;;;;5015041;28;38123;-58
2022/01/07 03:07:42;;;;;;;14.70;6.38;;;3.60;99.10;;;;;;5012932;28;37759;-59
2022/01/07 03:10:11;;;;;;;11.57;6.18;;;3.60;99.10;;;;;;5015646;28;37587;-59
2022/01/07 03:12:42;;;;;;;9.73;6.03;;;3.60;99.00;;;;;;5013984;28;37430;-59
2022/01/07 03:15:12;;;;;;;8.52;5.38;;;3.60;99.10;;;;;;5018075;28;39472;-59
2022/01/07 03:17:40;;;;;;;12.85;6.50;;;3.60;99.10;;;;;;5017949;28;37737;-59
2022/01/07 03:20:09;;;;;;;11.48;6.22;;;3.70;98.90;;;;;;5019382;28;37246;-59
2022/01/07 03:22:36;;;;;;;13.10;6.22;;;3.70;98.60;;;;;;5018876;28;36167;-59
2022/01/07 03:25:04;;;;;;;13.95;6.38;;;3.70;98.60;;;;;;5020409;28;38052;-58
2022/01/07 03:27:32;;;;;;;10.38;5.93;;;3.70;98.80;;;;;;5020182;28;38339;-59
2022/01/07 03:30:01;;;;;;;12.85;6.85;;;3.70;98.70;;;;;;5020071;28;40371;-59
2022/01/07 03:32:28;;;;;;;14.10;7.32;;;3.70;98.80;;;;;;5018150;28;36180;-59
2022/01/07 03:34:55;;;;;;;13.18;6.65;;;3.70;98.90;;;;;;5020605;28;37339;-59
2022/01/07 03:37:23;;;;;;;14.98;7.32;;;3.70;98.80;;;;;;5019214;28;38843;-59
2022/01/07 03:39:50;;;;;;;15.60;7.22;;;3.70;98.80;;;;;;5019013;28;39838;-59
2022/01/07 03:42:17;;;;;;;15.80;6.60;;;3.70;99.10;;;;;;5018774;28;36511;-59
2022/01/07 03:44:45;;;;;;;11.55;7.03;;;3.70;99.00;;;;;;5020571;28;36459;-58
2022/01/07 03:47:13;;;;;;;15.05;6.72;;;3.50;99.10;;;;;;5017612;28;37898;-58
2022/01/07 03:49:41;;;;;;;12.18;6.88;;;3.70;98.90;;;;;;5019223;28;39793;-58
2022/01/07 03:52:08;;;;;;;17.23;7.68;;;3.70;99.10;;;;;;5018758;28;36502;-59
2022/01/07 03:54:35;;;;;;;14.68;6.82;;;3.70;99.10;;;;;;5019578;28;36364;-59
2022/01/07 03:57:03;;;;;;;14.02;7.65;;;3.70;99.10;;;;;;5020214;28;38513;-58
2022/01/07 03:59:30;;;;;;;13.90;6.72;;;3.70;99.20;;;;;;5018782;28;37237;-58
2022/01/07 04:01:57;;;;;;;14.85;8.27;;;3.70;99.20;;;;;;5019190;28;35943;-58
2022/01/07 04:04:26;;;;;;;15.63;7.40;;;3.70;99.10;;;;;;5018970;28;37463;-59
2022/01/07 04:06:53;;;;;;;10.60;6.78;;;3.70;99.30;;;;;;5017288;28;38689;-59
2022/01/07 04:09:21;;;;;;;11.30;7.32;;;3.70;99.10;;;;;;5018799;28;37889;-58
2022/01/07 04:11:48;;;;;;;15.10;7.15;;;3.80;99.10;;;;;;5019898;28;38770;-59
2022/01/07 04:14:15;;;;;;;15.70;6.95;;;3.90;99.00;;;;;;5019943;28;38943;-58
2022/01/07 04:16:43;;;;;;;12.65;6.63;;;3.80;99.10;;;;;;5018606;28;39436;-59
2022/01/07 04:19:10;;;;;;;14.27;7.53;;;3.80;99.10;;;;;;5018074;28;37209;-58
2022/01/07 04:21:39;;;;;;;14.85;6.90;;;3.80;99.10;;;;;;5019527;28;35303;-58
2022/01/07 04:24:06;;;;;;;14.25;6.68;;;3.80;99.10;;;;;;5019011;28;37475;-59
2022/01/07 04:26:34;;;;;;;12.50;7.68;;;3.80;99.10;;;;;;5018527;28;37689;-59
2022/01/07 04:29:01;;;;;;;12.15;6.63;;;3.80;99.10;;;;;;5019027;28;37220;-58
2022/01/07 04:31:28;;;;;;;12.90;6.82;;;3.80;99.20;;;;;;5017666;28;33992;-59
2022/01/07 04:33:56;;;;;;;11.07;6.30;;;3.80;99.10;;;;;;5018648;28;38110;-58
2022/01/07 04:36:23;;;;;;;12.73;7.40;;;3.80;99.10;;;;;;5018602;28;37769;-58
2022/01/07 04:38:52;;;;;;;11.38;6.75;;;3.80;99.10;;;;;;5019215;28;36331;-59
2022/01/07 04:41:19;;;;;;;10.98;7.45;;;3.80;99.30;;;;;;5019666;28;36912;-58
2022/01/07 04:43:48;;;;;;;11.07;7.07;;;3.80;99.30;;;;;;5019442;28;37354;-58
2022/01/07 04:46:16;;;;;;;9.35;6.30;;;3.80;99.30;;;;;;5019340;28;39158;-59
2022/01/07 04:48:43;;;;;;;15.48;7.15;;;3.80;99.30;;;;;;5019011;28;38208;-59
2022/01/07 04:51:10;;;;;;;10.70;6.97;;;3.80;99.30;;;;;;5018242;28;36299;-59
2022/01/07 04:53:38;;;;;;;13.98;7.82;;;3.80;99.40;;;;;;5017926;28;40309;-58
2022/01/07 04:56:07;;;;;;;11.77;7.57;;;3.90;99.30;;;;;;5019497;28;38425;-59
2022/01/07 04:58:34;;;;;;;11.93;8.10;;;3.80;99.30;;;;;;5018902;28;37337;-59
2022/01/07 05:01:01;;;;;;;11.82;6.95;;;3.90;99.20;;;;;;5017537;28;35078;-59
2022/01/07 05:03:29;;;;;;;13.45;7.80;;;3.90;99.10;;;;;;5018106;28;37301;-59
2022/01/07 05:06:07;;;;;;;12.57;7.78;;;3.90;99.20;;;;;;5018006;28;38369;-59
2022/01/07 05:08:35;;;;;;;14.32;7.90;;;3.90;99.10;;;;;;5018207;28;38895;-58
2022/01/07 05:11:02;;;;;;;11.15;6.78;;;3.90;99.10;;;;;;5018864;28;36306;-59
2022/01/07 05:13:31;;;;;;;14.02;6.85;;;3.90;99.20;;;;;;5018794;28;37960;-59
2022/01/07 05:15:58;;;;;;;11.57;7.38;;;3.90;99.20;;;;;;5017420;28;36498;-59
2022/01/07 05:18:25;;;;;;;10.20;6.82;;;4.00;99.20;;;;;;5017673;28;39169;-59
2022/01/07 05:20:52;;;;;;;15.82;7.45;;;4.00;99.20;;;;;;5017773;28;37050;-59
2022/01/07 05:23:20;;;;;;;10.75;6.82;;;4.00;99.10;;;;;;5016155;28;37264;-59
2022/01/07 05:25:47;;;;;;;13.55;7.30;;;4.10;99.00;;;;;;5015587;28;38793;-59
2022/01/07 05:28:14;;;;;;;12.88;7.07;;;4.00;98.90;;;;;;5017276;28;37366;-59
2022/01/07 05:30:43;;;;;;;10.90;6.95;;;4.10;98.90;;;;;;5015852;28;38814;-59
2022/01/07 05:33:10;;;;;;;14.05;7.40;;;4.10;98.90;;;;;;5016666;28;36479;-59
2022/01/07 05:35:38;;;;;;;10.43;6.45;;;4.10;98.90;;;;;;5017361;28;37896;-59
2022/01/07 05:38:05;;;;;;;11.13;6.82;;;4.10;98.90;;;;;;5017693;28;36247;-59
2022/01/07 05:40:32;;;;;;;11.18;7.35;;;4.10;98.70;;;;;;5017773;28;36110;-59
2022/01/07 05:43:00;;;;;;;13.00;7.03;;;4.10;98.80;;;;;;5018122;28;37669;-59
2022/01/07 05:45:27;;;;;;;11.10;6.65;;;4.10;98.80;;;;;;5017037;28;37099;-59
2022/01/07 05:47:56;;;;;;;12.63;6.90;;;4.20;98.90;;;;;;5017091;28;37299;-59
2022/01/07 05:50:23;;;;;;;12.40;7.13;;;4.10;98.80;;;;;;5016396;28;36706;-59
2022/01/07 05:52:50;;;;;;;10.52;7.07;;;4.10;98.90;;;;;;5017052;28;37581;-59
2022/01/07 05:55:18;;;;;;;11.13;6.65;;;4.20;98.90;;;;;;5017585;28;36399;-59
2022/01/07 05:57:45;;;;;;;11.57;6.63;;;4.20;98.90;;;;;;5017421;28;38381;-59
2022/01/07 06:00:13;;;;;;;13.23;7.72;;;4.20;98.80;;;;;;5016783;28;35315;-59
2022/01/07 06:02:41;;;;;;;11.93;6.72;;;4.20;98.80;;;;;;5018109;28;36312;-59
2022/01/07 06:05:10;;;;;;;11.88;7.43;;;4.20;98.80;;;;;;5017061;28;39832;-59
2022/01/07 06:07:37;;;;;;;11.90;7.50;;;4.30;98.90;;;;;;5017933;28;38469;-59
2022/01/07 06:10:05;;;;;;;15.60;7.07;;;4.20;98.80;;;;;;5016836;28;36590;-58
2022/01/07 06:12:33;;;;;;;13.43;7.68;;;4.20;99.00;;;;;;5017184;28;39498;-59
2022/01/07 06:15:00;;;;;;;10.15;7.22;;;4.20;98.90;;;;;;5017530;28;37634;-59
2022/01/07 06:17:28;;;;;;;15.63;7.40;;;4.20;98.90;;;;;;5016805;28;38439;-59
2022/01/07 06:19:55;;;;;;;12.25;7.45;;;4.20;98.90;;;;;;5017618;28;36640;-60
2022/01/07 06:22:24;;;;;;;11.98;7.30;;;4.30;98.90;;;;;;5017315;28;36364;-60
2022/01/07 06:24:51;;;;;;;11.68;7.53;;;4.30;99.00;;;;;;5017929;28;36582;-59
2022/01/07 06:27:19;;;;;;;10.40;7.57;;;4.30;99.20;;;;;;5017914;28;36808;-60
2022/01/07 06:29:46;;;;;;;12.38;7.13;;;4.30;99.10;;;;;;5017378;28;37041;-59
2022/01/07 06:32:14;;;;;;;15.15;8.10;;;4.20;99.10;;;;;;5017254;28;37475;-60
2022/01/07 06:34:41;;;;;;;9.20;7.03;;;4.20;99.10;;;;;;5018793;28;37696;-60
2022/01/07 06:37:09;;;;;;;14.80;7.60;;;4.30;99.20;;;;;;5016335;28;37467;-60
2022/01/07 06:39:38;;;;;;;11.85;6.63;;;4.30;99.10;;;;;;5018217;28;36423;-59
2022/01/07 06:42:06;;;;;;;11.13;6.53;;;4.20;99.00;;;;;;5017835;28;38360;-60
2022/01/07 06:44:34;;;;;;;15.02;7.95;;;4.20;99.10;;;;;;5017980;28;37563;-59
2022/01/07 06:47:01;;;;;;;11.23;6.65;;;4.20;99.30;;;;;;5017368;28;36162;-60
2022/01/07 06:49:28;;;;;;;13.65;7.05;;;4.30;99.10;;;;;;5021046;28;37304;-60
2022/01/07 06:51:57;;;;;;;11.15;6.95;;;4.20;99.10;;;;;;5020163;28;37456;-60
2022/01/07 06:54:24;;;;;;;10.02;6.60;;;4.30;99.20;;;;;;5021542;28;37691;-60
2022/01/07 06:56:53;;;;;;;10.82;6.20;;;4.30;99.20;;;;;;5021091;28;36282;-60
2022/01/07 06:59:21;;;;;;;12.32;7.25;;;4.30;99.20;;;;;;5019277;28;36335;-59
2022/01/07 07:01:48;;;;;;;9.82;6.82;;;4.30;99.30;;;;;;5019900;28;37509;-60
2022/01/07 07:04:17;;;;;;;11.25;7.20;;;4.30;99.20;;;;;;5020604;28;38992;-60
2022/01/07 07:06:45;;;;;;;12.18;7.25;;;4.30;99.20;;;;;;5020745;28;38349;-60
2022/01/07 07:09:12;;;;;;;14.90;8.48;;;4.30;99.20;;;;;;5020918;28;36350;-60
2022/01/07 07:11:40;;;;;;;10.88;7.82;;;4.40;99.40;;;;;;5019259;28;38362;-60
2022/01/07 07:14:09;;;;;;;14.10;7.93;;;4.40;99.30;;;;;;5019712;28;38835;-60
2022/01/07 07:16:36;;;;;;;11.63;7.38;;;4.40;99.20;;;;;;5020142;28;38470;-60
2022/01/07 07:19:04;;;;;;;13.80;8.35;;;4.50;99.20;;;;;;5019429;28;36662;-60
2022/01/07 07:21:31;;;;;;;11.73;7.28;;;4.50;99.20;;;;;;5019768;28;37678;-60
2022/01/07 07:23:59;;;;;;;14.18;7.47;;;4.50;99.30;;;;;;5018939;28;37597;-60
2022/01/07 07:26:26;;;;;;;13.30;7.70;;;4.50;99.20;;;;;;5020622;28;38290;-60
2022/01/07 07:28:53;;;;;;;14.23;8.30;;;4.60;99.40;;;;;;5020384;28;35349;-60
2022/01/07 07:31:22;;;;;;;12.93;8.38;;;4.60;99.10;;;;;;5018576;28;38034;-60
2022/01/07 07:36:44;;;;;;;14.05;8.77;;;4.60;99.20;;;;;;4986476;28;38466;-60
2022/01/07 07:39:13;;;;;;;16.23;8.85;;;4.70;99.30;;;;;;5017762;28;37204;-60
2022/01/07 07:41:42;;;;;;;14.80;8.90;;;4.60;99.10;;;;;;5018884;28;38208;-60
2022/01/07 07:44:10;;;;;;;12.68;8.50;;;4.70;99.10;;;;;;5018065;28;37721;-60
2022/01/07 07:46:40;;;;;;;15.88;9.32;;;4.70;99.20;;;;;;5017893;28;36241;-60
2022/01/07 07:49:09;;;;;;;13.77;8.85;;;4.70;99.00;;;;;;5019696;28;36524;-60
2022/01/07 07:51:37;;;;;;;15.48;9.63;;;4.70;99.00;;;;;;5018663;28;38518;-60
2022/01/07 07:54:05;;;;;;;15.13;9.73;;;4.70;99.10;;;;;;5019432;28;37915;-60
2022/01/07 07:56:33;;;;;;;21.65;9.80;;;4.80;99.20;;;;;;5019692;28;38180;-60
2022/01/07 07:59:01;;;;;;;15.02;9.48;;;4.80;99.20;;;;;;5019142;28;37132;-60
2022/01/07 08:01:28;;;;;;;19.67;10.98;;;4.80;99.10;;;;;;5019380;28;36515;-60
2022/01/07 08:03:57;;;;;;;19.58;10.63;;;4.80;99.10;;;;;;5018765;28;37265;-60
2022/01/07 08:06:24;;;;;;;16.23;10.50;;;4.90;99.20;;;;;;5019422;28;37261;-60
2022/01/07 08:08:52;;;;;;;19.75;10.85;;;4.90;99.10;;;;;;5019781;28;36814;-60
2022/01/07 08:11:21;;;;;;;17.48;9.80;;;4.90;99.10;;;;;;5018800;28;35861;-60
2022/01/07 08:16:34;;;;;;;17.50;9.90;;;4.90;99.10;;;;;;5018200;28;38145;-60
2022/01/07 08:19:03;;;;;;;15.35;11.18;;;4.90;99.10;;;;;;5019905;28;38144;-60
2022/01/07 08:21:31;;;;;;;18.38;10.80;;;5.00;99.30;;;;;;5019299;28;37194;-59
2022/01/07 08:23:59;;;;;;;18.83;10.98;;;5.00;99.10;;;;;;5018297;28;37605;-60
2022/01/07 08:26:27;;;;;;;19.92;11.02;;;5.00;99.00;;;;;;5020036;28;38462;-60
2022/01/07 08:28:58;;;;;;;17.02;9.90;;;5.00;99.10;;;;;;5019837;28;37647;-60
2022/01/07 08:34:53;;;;;;;20.58;11.60;;;5.00;99.10;;;;;;5017738;28;36444;-60
2022/01/07 08:37:02;;;;;;;19.15;10.77;;;5.10;99.00;;;;;;5019393;28;38260;-60
2022/01/07 08:39:29;;;;;;;18.63;10.40;;;5.10;99.10;;;;;;5018865;28;39150;-60
2022/01/07 08:41:57;;;;;;;22.80;11.93;;;5.00;99.00;;;;;;5019337;28;37319;-60
2022/01/07 08:44:26;;;;;;;18.88;10.90;;;5.10;99.00;;;;;;5019071;28;36550;-60
2022/01/07 08:46:54;;;;;;;18.95;11.90;;;5.20;98.90;;;;;;5017980;28;38855;-60
2022/01/07 08:49:23;;;;;;;25.67;11.55;;;5.20;98.90;;;;;;5019085;28;35587;-60
2022/01/07 08:51:50;;;;;;;18.48;11.10;;;5.20;98.90;;;;;;5018898;28;38405;-60
2022/01/07 08:54:17;;;;;;;18.73;11.68;;;5.20;98.90;;;;;;5019635;28;37289;-60
2022/01/07 08:56:45;;;;;;;19.75;11.05;;;5.20;98.90;;;;;;5018442;28;37665;-60
2022/01/07 08:59:12;;;;;;;23.50;12.65;;;5.20;98.90;;;;;;5015788;28;36711;-59
2022/01/07 09:01:39;;;;;;;21.35;11.82;;;5.30;98.90;;;;;;5014528;28;38514;-60
2022/01/07 09:04:07;;;;;;;23.25;10.82;;;5.40;98.90;;;;;;5013634;28;38483;-60
2022/01/07 09:06:36;;;;;;;18.00;10.45;;;5.40;98.80;;;;;;5015588;28;37222;-60
2022/01/07 09:09:03;;;;;;;20.15;11.60;;;5.50;98.80;;;;;;5015249;28;38033;-59
2022/01/07 09:11:31;;;;;;;19.60;11.70;;;5.40;98.80;;;;;;5013382;28;38096;-59
2022/01/07 09:13:58;;;;;;;23.30;11.60;;;5.50;98.90;;;;;;5014731;28;37501;-61
2022/01/07 09:16:26;;;;;;;18.58;11.20;;;5.50;99.00;;;;;;5012725;28;38683;-60
2022/01/07 09:18:54;;;;;;;22.85;12.00;;;5.50;99.00;;;;;;5016258;28;35027;-60
2022/01/07 09:21:21;;;;;;;24.00;13.10;;;5.50;99.00;;;;;;5015155;28;38517;-60
2022/01/07 09:23:50;;;;;;;22.27;13.13;;;5.50;99.00;;;;;;5014256;28;37783;-59
2022/01/07 09:26:17;;;;;;;18.90;12.23;;;5.60;99.00;;;;;;5015858;28;38236;-60
2022/01/07 09:28:44;;;;;;;26.05;12.82;;;5.60;98.90;;;;;;5016353;28;35124;-60
2022/01/07 09:31:13;;;;;;;21.92;11.98;;;5.70;98.80;;;;;;5014811;28;38269;-60
2022/01/07 09:33:41;;;;;;;19.02;12.02;;;5.60;98.70;;;;;;5015011;28;37969;-59
2022/01/07 09:36:09;;;;;;;25.52;12.90;;;5.70;98.60;;;;;;5015402;28;37500;-59
2022/01/07 09:38:36;;;;;;;22.60;12.88;;;5.60;98.60;;;;;;5015557;28;37389;-60
2022/01/07 09:41:07;;;;;;;21.98;12.60;;;5.70;98.80;;;;;;5015868;28;37773;-60
2022/01/07 09:43:34;;;;;;;21.15;12.20;;;5.80;98.60;;;;;;5014812;28;38613;-60
2022/01/07 09:46:02;;;;;;;24.35;12.20;;;6.00;98.60;;;;;;5015120;28;37600;-60
2022/01/07 09:48:29;;;;;;;20.05;11.75;;;6.10;97.90;;;;;;5015623;28;36598;-60
2022/01/07 09:50:56;;;;;;;18.48;11.75;;;6.10;97.60;;;;;;5014076;28;37433;-60
2022/01/07 09:53:26;;;;;;;20.90;11.52;;;6.10;97.30;;;;;;5013789;28;38637;-60
2022/01/07 09:55:54;;;;;;;23.23;10.63;;;6.00;97.30;;;;;;5013931;28;39272;-59
2022/01/07 09:58:22;;;;;;;18.73;9.27;;;6.00;97.30;;;;;;5015418;28;38019;-60
2022/01/07 10:00:50;;;;;;;19.08;9.60;;;5.90;97.10;;;;;;5014678;28;38568;-60
2022/01/07 10:03:18;;;;;;;14.60;7.88;;;5.80;96.90;;;;;;5014598;28;39424;-59
2022/01/07 10:05:49;;;;;;;17.95;8.00;;;5.80;96.90;;;;;;5014162;28;37435;-59
2022/01/07 10:08:17;;;;;;;16.63;8.18;;;5.70;96.90;;;;;;5013955;28;37198;-59
2022/01/07 10:10:45;;;;;;;21.42;7.88;;;5.70;96.80;;;;;;5013685;28;37644;-59
2022/01/07 10:13:12;;;;;;;13.07;7.63;;;5.70;96.80;;;;;;5014560;28;38139;-59
2022/01/07 10:15:41;;;;;;;13.85;4.80;;;5.80;96.90;;;;;;5013162;28;37327;-59
2022/01/07 10:18:10;;;;;;;8.43;4.13;;;5.70;96.10;;;;;;5013511;28;35457;-60
2022/01/07 10:20:41;;;;;;;10.30;4.20;;;5.70;95.50;;;;;;5013675;28;38521;-59
2022/01/07 10:23:09;;;;;;;10.23;3.90;;;5.60;95.40;;;;;;5016060;28;37947;-59
2022/01/07 10:25:39;;;;;;;10.40;4.00;;;5.60;95.60;;;;;;5019152;28;37747;-60
2022/01/07 10:28:09;;;;;;;7.30;3.53;;;5.60;95.60;;;;;;5017779;28;38407;-60
2022/01/07 10:30:39;;;;;;;7.32;3.53;;;5.40;95.70;;;;;;5019507;28;38236;-60
2022/01/07 10:33:19;;;;;;;6.43;3.30;;;5.60;95.80;;;;;;5019241;28;37386;-60
2022/01/07 10:35:47;;;;;;;6.68;3.42;;;5.70;95.50;;;;;;5017522;28;37474;-60
2022/01/07 10:38:17;;;;;;;7.90;3.38;;;5.80;95.50;;;;;;5019773;28;36439;-59
2022/01/07 10:40:44;;;;;;;8.48;3.55;;;6.00;95.40;;;;;;5018956;28;39069;-59
2022/01/07 10:43:15;;;;;;;6.45;2.85;;;6.20;95.40;;;;;;5021232;28;37683;-59
2022/01/07 10:45:44;;;;;;;6.35;2.53;;;6.30;95.00;;;;;;5020279;28;38582;-59
2022/01/07 10:48:12;;;;;;;8.35;2.33;;;6.20;94.10;;;;;;5020298;28;36767;-59
2022/01/07 10:50:43;;;;;;;6.57;2.58;;;6.10;94.10;;;;;;5019785;28;36957;-59
2022/01/07 10:53:19;;;;;;;7.03;2.58;;;6.10;94.20;;;;;;5019928;28;37775;-59
2022/01/07 10:56:00;;;;;;;4.47;1.88;;;6.00;94.30;;;;;;5020489;28;37448;-59
2022/01/07 10:58:27;;;;;;;5.32;1.98;;;6.00;94.30;;;;;;5020411;28;36476;-59
2022/01/07 11:00:55;;;;;;;4.22;1.77;;;6.00;94.40;;;;;;5021094;28;35501;-59
2022/01/07 11:03:22;;;;;;;5.22;2.05;;;5.90;94.40;;;;;;5020541;28;39945;-59
2022/01/07 11:05:51;;;;;;;7.38;1.77;;;5.90;94.40;;;;;;5019310;28;38627;-59
2022/01/07 11:08:19;;;;;;;5.68;1.42;;;5.90;94.50;;;;;;5020019;28;37572;-59
2022/01/07 11:10:46;;;;;;;6.63;1.73;;;5.90;94.50;;;;;;5020253;28;37426;-59
2022/01/07 11:13:14;;;;;;;7.65;1.50;;;5.90;94.30;;;;;;5019190;28;37419;-59
2022/01/07 11:15:42;;;;;;;6.82;1.88;;;6.00;94.40;;;;;;5019950;28;37262;-59
2022/01/07 11:18:10;;;;;;;8.75;2.75;;;6.00;94.40;;;;;;5021059;28;36499;-59
2022/01/07 11:20:38;;;;;;;8.55;2.50;;;6.00;94.30;;;;;;5019239;28;36144;-59
2022/01/07 11:23:07;;;;;;;7.85;2.35;;;6.00;94.20;;;;;;5018680;28;37650;-59
2022/01/07 11:25:35;;;;;;;7.57;2.53;;;6.00;94.40;;;;;;5018776;28;37478;-59
2022/01/07 11:28:02;;;;;;;9.10;2.60;;;6.00;94.40;;;;;;5021834;28;35227;-59
2022/01/07 11:30:32;;;;;;;8.95;2.95;;;6.20;94.40;;;;;;5022456;28;39133;-59
2022/01/07 11:33:00;;;;;;;8.93;2.95;;;6.20;94.40;;;;;;5022842;28;37691;-59
2022/01/07 11:35:49;;;;;;;7.90;3.72;;;6.30;94.50;;;;;;5023012;28;38834;-59
2022/01/07 11:38:44;;;;;;;12.15;4.82;;;6.30;94.40;;;;;;5022566;28;37636;-59
2022/01/07 11:41:15;;;;;;;10.63;4.75;;;6.40;94.40;;;;;;5023063;28;38282;-59
2022/01/07 11:43:46;;;;;;;11.93;5.03;;;6.90;94.30;;;;;;5023594;28;37762;-60
2022/01/07 11:46:25;;;;;;;10.40;5.18;;;6.60;94.20;;;;;;5023360;28;38327;-59
2022/01/07 11:48:54;;;;;;;15.60;5.55;;;6.80;93.70;;;;;;5023198;28;36765;-59
2022/01/07 11:51:22;;;;;;;14.32;5.88;;;7.10;93.40;;;;;;5022108;28;37443;-59
2022/01/07 11:54:09;;;;;;;15.05;5.72;;;7.30;92.90;;;;;;5021996;28;37685;-59
2022/01/07 11:56:38;;;;;;;15.98;5.60;;;7.40;92.50;;;;;;5024118;28;38648;-59
2022/01/07 11:59:26;;;;;;;14.07;5.70;;;7.40;92.70;;;;;;5022585;28;36523;-60
2022/01/07 12:02:05;;;;;;;17.52;6.53;;;7.50;92.40;;;;;;5023606;28;38152;-60
2022/01/07 12:04:35;;;;;;;14.15;5.40;;;7.50;92.20;;;;;;5023346;28;40272;-60
2022/01/07 12:07:04;;;;;;;11.82;5.32;;;7.50;92.30;;;;;;5023041;28;37664;-59
2022/01/07 12:09:38;;;;;;;15.93;5.97;;;7.40;92.50;;;;;;5022075;28;36534;-59
2022/01/07 12:12:10;;;;;;;13.38;5.53;;;7.20;92.60;;;;;;5022046;28;38166;-59
2022/01/07 12:14:42;;;;;;;13.18;5.38;;;6.90;93.10;;;;;;5022014;28;39727;-59
2022/01/07 12:17:15;;;;;;;10.65;5.32;;;6.80;93.40;;;;;;5022546;28;38396;-59
2022/01/07 12:20:21;;;;;;;13.25;6.38;;;6.80;94.00;;;;;;5021599;28;39475;-59
2022/01/07 12:22:50;;;;;;;13.80;5.38;;;6.80;94.70;;;;;;5021264;28;37611;-59
2022/01/07 12:25:19;;;;;;;15.60;6.40;;;6.80;94.60;;;;;;5021950;28;37927;-59
2022/01/07 12:27:47;;;;;;;14.80;6.53;;;6.90;94.60;;;;;;5023935;28;37765;-59
2022/01/07 12:30:14;;;;;;;11.68;5.47;;;6.90;94.40;;;;;;5021729;28;36483;-59
2022/01/07 12:32:44;;;;;;;15.18;6.25;;;6.90;94.30;;;;;;5022255;28;20057;-60
2022/01/07 12:35:13;;;;;;;11.27;4.70;;;6.90;94.30;;;;;;5021187;28;38310;-59
2022/01/07 12:37:40;;;;;;;13.93;5.20;;;6.90;94.20;;;;;;5022153;28;37154;-59
2022/01/07 12:40:11;;;;;;;12.98;4.70;;;6.90;93.80;;;;;;5022530;28;36866;-59
2022/01/07 12:42:42;;;;;;;9.38;4.18;;;6.90;93.50;;;;;;5021681;28;37512;-60
2022/01/07 12:45:22;;;;;;;12.48;3.75;;;6.80;93.40;;;;;;5021437;28;37716;-59
2022/01/07 12:47:52;;;;;;;8.15;3.15;;;6.70;93.20;;;;;;5022551;28;36104;-59
2022/01/07 12:50:21;;;;;;;9.25;3.15;;;6.70;93.30;;;;;;5023171;28;37421;-59
2022/01/07 12:52:49;;;;;;;11.98;3.20;;;6.70;93.10;;;;;;5022355;28;37303;-59
2022/01/07 12:55:19;;;;;;;9.77;2.78;;;6.60;93.00;;;;;;5022341;28;36515;-59
2022/01/07 12:57:50;;;;;;;10.38;2.88;;;6.60;93.20;;;;;;5022533;28;37680;-59
2022/01/07 13:00:21;;;;;;;7.15;2.38;;;6.50;93.10;;;;;;5022807;28;36899;-59
2022/01/07 13:02:50;;;;;;;8.80;2.67;;;6.40;93.10;;;;;;5020741;28;37756;-59